sensor_id;sensor_type;location;lat;lon;timestamp;temperature;humidity
39899;DHT22;25571;47.876;10.642;2024-01-30T00:01:02;2.30;99.90
39899;DHT22;25571;47.876;10.642;2024-01-30T00:03:28;2.30;99.90
39899;DHT22;25571;47.876;10.642;2024-01-30T00:05:55;2.30;99.90
39899;DHT22;25571;47.876;10.642;2024-01-30T00:08:20;2.30;99.90
39899;DHT22;25571;47.876;10.642;2024-01-30T00:10:46;2.30;99.90
39899;DHT22;25571;47.876;10.642;2024-01-30T00:13:11;2.20;99.90
39899;DHT22;25571;47.876;10.642;2024-01-30T00:15:39;2.30;99.90
39899;DHT22;25571;47.876;10.642;2024-01-30T00:18:04;2.20;99.90
39899;DHT22;25571;47.876;10.642;2024-01-30T00:20:30;2.30;99.90
39899;DHT22;25571;47.876;10.642;2024-01-30T00:22:56;2.20;99.90
39899;DHT22;25571;47.876;10.642;2024-01-30T00:25:21;2.20;99.90
39899;DHT22;25571;47.876;10.642;2024-01-30T00:27:47;2.10;99.90
39899;DHT22;25571;47.876;10.642;2024-01-30T00:30:12;2.10;99.90
39899;DHT22;25571;47.876;10.642;2024-01-30T00:32:38;2.10;99.90
39899;DHT22;25571;47.876;10.642;2024-01-30T00:35:04;2.00;99.90
39899;DHT22;25571;47.876;10.642;2024-01-30T00:37:30;1.90;99.90
39899;DHT22;25571;47.876;10.642;2024-01-30T00:39:57;2.00;99.90
39899;DHT22;25571;47.876;10.642;2024-01-30T00:42:22;2.00;99.90
39899;DHT22;25571;47.876;10.642;2024-01-30T00:44:50;2.00;99.90
39899;DHT22;25571;47.876;10.642;2024-01-30T00:47:16;2.00;99.90
39899;DHT22;25571;47.876;10.642;2024-01-30T00:49:41;2.00;99.90
39899;DHT22;25571;47.876;10.642;2024-01-30T00:52:07;2.00;99.90
39899;DHT22;25571;47.876;10.642;2024-01-30T00:54:32;2.00;99.90
39899;DHT22;25571;47.876;10.642;2024-01-30T00:56:58;2.10;99.90
39899;DHT22;25571;47.876;10.642;2024-01-30T00:59:23;2.00;99.90
39899;DHT22;25571;47.876;10.642;2024-01-30T01:01:49;2.10;99.90
39899;DHT22;25571;47.876;10.642;2024-01-30T01:04:14;2.10;99.90
39899;DHT22;25571;47.876;10.642;2024-01-30T01:06:40;2.10;99.90
39899;DHT22;25571;47.876;10.642;2024-01-30T01:09:10;2.10;99.90
39899;DHT22;25571;47.876;10.642;2024-01-30T01:11:36;2.20;99.90
39899;DHT22;25571;47.876;10.642;2024-01-30T01:14:03;2.20;99.90
39899;DHT22;25571;47.876;10.642;2024-01-30T01:16:29;2.10;99.90
39899;DHT22;25571;47.876;10.642;2024-01-30T01:18:55;2.20;99.90
39899;DHT22;25571;47.876;10.642;2024-01-30T01:21:20;2.20;99.90
39899;DHT22;25571;47.876;10.642;2024-01-30T01:23:46;2.20;99.90
39899;DHT22;25571;47.876;10.642;2024-01-30T01:26:12;2.20;99.90
39899;DHT22;25571;47.876;10.642;2024-01-30T01:28:40;2.10;99.90
39899;DHT22;25571;47.876;10.642;2024-01-30T01:31:06;2.10;99.90
39899;DHT22;25571;47.876;10.642;2024-01-30T01:33:32;2.10;99.90
39899;DHT22;25571;47.876;10.642;2024-01-30T01:35:59;2.10;99.90
39899;DHT22;25571;47.876;10.642;2024-01-30T01:38:25;2.10;99.90
39899;DHT22;25571;47.876;10.642;2024-01-30T01:40:50;2.00;99.90
39899;DHT22;25571;47.876;10.642;2024-01-30T01:43:16;2.00;99.90
39899;DHT22;25571;47.876;10.642;2024-01-30T01:45:42;2.00;99.90
39899;DHT22;25571;47.876;10.642;2024-01-30T01:48:08;2.00;99.90
39899;DHT22;25571;47.876;10.642;2024-01-30T01:50:34;2.00;99.90
39899;DHT22;25571;47.876;10.642;2024-01-30T01:53:01;2.00;99.90
39899;DHT22;25571;47.876;10.642;2024-01-30T01:55:29;2.10;99.90
39899;DHT22;25571;47.876;10.642;2024-01-30T01:57:55;2.00;99.90
39899;DHT22;25571;47.876;10.642;2024-01-30T02:00:22;2.00;99.90
39899;DHT22;25571;47.876;10.642;2024-01-30T02:02:49;2.00;99.90
39899;DHT22;25571;47.876;10.642;2024-01-30T02:05:16;2.10;99.90
39899;DHT22;25571;47.876;10.642;2024-01-30T02:07:42;2.00;99.90
39899;DHT22;25571;47.876;10.642;2024-01-30T02:10:08;2.00;99.90
39899;DHT22;25571;47.876;10.642;2024-01-30T02:12:35;2.00;99.90
39899;DHT22;25571;47.876;10.642;2024-01-30T02:15:01;1.90;99.90
39899;DHT22;25571;47.876;10.642;2024-01-30T02:17:26;1.90;99.90
39899;DHT22;25571;47.876;10.642;2024-01-30T02:19:52;1.90;99.90
39899;DHT22;25571;47.876;10.642;2024-01-30T02:22:19;1.90;99.90
39899;DHT22;25571;47.876;10.642;2024-01-30T02:24:45;1.90;99.90
39899;DHT22;25571;47.876;10.642;2024-01-30T02:27:11;1.90;99.90
39899;DHT22;25571;47.876;10.642;2024-01-30T02:29:36;1.90;99.90
39899;DHT22;25571;47.876;10.642;2024-01-30T02:32:02;1.90;99.90
39899;DHT22;25571;47.876;10.642;2024-01-30T02:34:28;1.80;99.90
39899;DHT22;25571;47.876;10.642;2024-01-30T02:36:54;1.70;99.90
39899;DHT22;25571;47.876;10.642;2024-01-30T02:39:19;1.70;99.90
39899;DHT22;25571;47.876;10.642;2024-01-30T02:41:45;1.80;99.90
39899;DHT22;25571;47.876;10.642;2024-01-30T02:44:10;1.80;99.90
39899;DHT22;25571;47.876;10.642;2024-01-30T02:46:36;1.80;99.90
39899;DHT22;25571;47.876;10.642;2024-01-30T02:49:02;1.80;99.90
39899;DHT22;25571;47.876;10.642;2024-01-30T02:51:27;1.80;99.90
39899;DHT22;25571;47.876;10.642;2024-01-30T02:53:53;1.90;99.90
39899;DHT22;25571;47.876;10.642;2024-01-30T02:56:18;1.80;99.90
39899;DHT22;25571;47.876;10.642;2024-01-30T02:58:44;1.80;99.90
39899;DHT22;25571;47.876;10.642;2024-01-30T03:01:09;1.80;99.90
39899;DHT22;25571;47.876;10.642;2024-01-30T03:03:35;1.80;99.90
39899;DHT22;25571;47.876;10.642;2024-01-30T03:06:01;1.70;99.90
39899;DHT22;25571;47.876;10.642;2024-01-30T03:08:27;1.60;99.90
39899;DHT22;25571;47.876;10.642;2024-01-30T03:10:53;1.60;99.90
39899;DHT22;25571;47.876;10.642;2024-01-30T03:13:18;1.60;99.90
39899;DHT22;25571;47.876;10.642;2024-01-30T03:15:44;1.60;99.90
39899;DHT22;25571;47.876;10.642;2024-01-30T03:18:10;1.60;99.90
39899;DHT22;25571;47.876;10.642;2024-01-30T03:20:35;1.50;99.90
39899;DHT22;25571;47.876;10.642;2024-01-30T03:23:01;1.50;99.90
39899;DHT22;25571;47.876;10.642;2024-01-30T03:25:27;1.50;99.90
39899;DHT22;25571;47.876;10.642;2024-01-30T03:27:52;1.50;99.90
39899;DHT22;25571;47.876;10.642;2024-01-30T03:30:18;1.50;99.90
39899;DHT22;25571;47.876;10.642;2024-01-30T03:32:43;1.50;99.90
39899;DHT22;25571;47.876;10.642;2024-01-30T03:35:09;1.50;99.90
39899;DHT22;25571;47.876;10.642;2024-01-30T03:37:35;1.50;99.90
39899;DHT22;25571;47.876;10.642;2024-01-30T03:40:02;1.50;99.90
39899;DHT22;25571;47.876;10.642;2024-01-30T03:42:28;1.50;99.90
39899;DHT22;25571;47.876;10.642;2024-01-30T03:44:54;1.50;99.90
39899;DHT22;25571;47.876;10.642;2024-01-30T03:47:20;1.50;99.90
39899;DHT22;25571;47.876;10.642;2024-01-30T03:49:46;1.50;99.90
39899;DHT22;25571;47.876;10.642;2024-01-30T03:52:11;1.50;99.90
39899;DHT22;25571;47.876;10.642;2024-01-30T03:54:37;1.60;99.90
39899;DHT22;25571;47.876;10.642;2024-01-30T03:57:03;1.60;99.90
39899;DHT22;25571;47.876;10.642;2024-01-30T03:59:28;1.60;99.90
39899;DHT22;25571;47.876;10.642;2024-01-30T04:01:54;1.60;99.90
39899;DHT22;25571;47.876;10.642;2024-01-30T04:04:20;1.60;99.90
39899;DHT22;25571;47.876;10.642;2024-01-30T04:06:46;1.60;99.90
39899;DHT22;25571;47.876;10.642;2024-01-30T04:09:12;1.60;99.90
39899;DHT22;25571;47.876;10.642;2024-01-30T04:11:39;1.60;99.90
39899;DHT22;25571;47.876;10.642;2024-01-30T04:14:04;1.50;99.90
39899;DHT22;25571;47.876;10.642;2024-01-30T04:16:30;1.60;99.90
39899;DHT22;25571;47.876;10.642;2024-01-30T04:18:56;1.60;99.90
39899;DHT22;25571;47.876;10.642;2024-01-30T04:21:22;1.70;99.90
39899;DHT22;25571;47.876;10.642;2024-01-30T04:23:48;1.70;99.90
39899;DHT22;25571;47.876;10.642;2024-01-30T04:26:14;1.70;99.90
39899;DHT22;25571;47.876;10.642;2024-01-30T04:28:41;1.70;99.90
39899;DHT22;25571;47.876;10.642;2024-01-30T04:31:07;1.70;99.90
39899;DHT22;25571;47.876;10.642;2024-01-30T04:33:33;1.70;99.90
39899;DHT22;25571;47.876;10.642;2024-01-30T04:35:58;1.70;99.90
39899;DHT22;25571;47.876;10.642;2024-01-30T04:38:24;1.70;99.90
39899;DHT22;25571;47.876;10.642;2024-01-30T04:40:50;1.60;99.90
39899;DHT22;25571;47.876;10.642;2024-01-30T04:43:15;1.60;99.90
39899;DHT22;25571;47.876;10.642;2024-01-30T04:45:41;1.60;99.90
39899;DHT22;25571;47.876;10.642;2024-01-30T04:48:07;1.60;99.90
39899;DHT22;25571;47.876;10.642;2024-01-30T04:50:33;1.60;99.90
39899;DHT22;25571;47.876;10.642;2024-01-30T04:52:58;1.60;99.90
39899;DHT22;25571;47.876;10.642;2024-01-30T04:55:24;1.50;99.90
39899;DHT22;25571;47.876;10.642;2024-01-30T04:57:49;1.60;99.90
39899;DHT22;25571;47.876;10.642;2024-01-30T05:00:15;1.60;99.90
39899;DHT22;25571;47.876;10.642;2024-01-30T05:02:41;1.50;99.90
39899;DHT22;25571;47.876;10.642;2024-01-30T05:05:07;1.60;99.90
39899;DHT22;25571;47.876;10.642;2024-01-30T05:07:33;1.60;99.90
39899;DHT22;25571;47.876;10.642;2024-01-30T05:09:59;1.60;99.90
39899;DHT22;25571;47.876;10.642;2024-01-30T05:12:25;1.70;99.90
39899;DHT22;25571;47.876;10.642;2024-01-30T05:14:50;1.70;99.90
39899;DHT22;25571;47.876;10.642;2024-01-30T05:17:16;1.60;99.90
39899;DHT22;25571;47.876;10.642;2024-01-30T05:19:43;1.60;99.90
39899;DHT22;25571;47.876;10.642;2024-01-30T05:22:08;1.60;99.90
39899;DHT22;25571;47.876;10.642;2024-01-30T05:24:35;1.50;99.90
39899;DHT22;25571;47.876;10.642;2024-01-30T05:27:00;1.60;99.90
39899;DHT22;25571;47.876;10.642;2024-01-30T05:29:27;1.60;99.90
39899;DHT22;25571;47.876;10.642;2024-01-30T05:31:52;1.60;99.90
39899;DHT22;25571;47.876;10.642;2024-01-30T05:34:18;1.50;99.90
39899;DHT22;25571;47.876;10.642;2024-01-30T05:36:43;1.50;99.90
39899;DHT22;25571;47.876;10.642;2024-01-30T05:39:09;1.40;99.90
39899;DHT22;25571;47.876;10.642;2024-01-30T05:41:35;1.50;99.90
39899;DHT22;25571;47.876;10.642;2024-01-30T05:44:01;1.50;99.90
39899;DHT22;25571;47.876;10.642;2024-01-30T05:46:27;1.50;99.90
39899;DHT22;25571;47.876;10.642;2024-01-30T05:48:53;1.40;99.90
39899;DHT22;25571;47.876;10.642;2024-01-30T05:51:18;1.40;99.90
39899;DHT22;25571;47.876;10.642;2024-01-30T05:53:44;1.40;99.90
39899;DHT22;25571;47.876;10.642;2024-01-30T05:56:09;1.40;99.90
39899;DHT22;25571;47.876;10.642;2024-01-30T05:58:35;1.50;99.90
39899;DHT22;25571;47.876;10.642;2024-01-30T06:01:03;1.50;99.90
39899;DHT22;25571;47.876;10.642;2024-01-30T06:03:28;1.40;99.90
39899;DHT22;25571;47.876;10.642;2024-01-30T06:05:54;1.50;99.90
39899;DHT22;25571;47.876;10.642;2024-01-30T06:08:19;1.50;99.90
39899;DHT22;25571;47.876;10.642;2024-01-30T06:10:45;1.40;99.90
39899;DHT22;25571;47.876;10.642;2024-01-30T06:13:11;1.50;99.90
39899;DHT22;25571;47.876;10.642;2024-01-30T06:15:36;1.50;99.90
39899;DHT22;25571;47.876;10.642;2024-01-30T06:18:02;1.40;99.90
39899;DHT22;25571;47.876;10.642;2024-01-30T06:20:28;1.40;99.90
39899;DHT22;25571;47.876;10.642;2024-01-30T06:22:53;1.50;99.90
39899;DHT22;25571;47.876;10.642;2024-01-30T06:25:19;1.40;99.90
39899;DHT22;25571;47.876;10.642;2024-01-30T06:27:45;1.40;99.90
39899;DHT22;25571;47.876;10.642;2024-01-30T06:30:11;1.40;99.90
39899;DHT22;25571;47.876;10.642;2024-01-30T06:32:36;1.50;99.90
39899;DHT22;25571;47.876;10.642;2024-01-30T06:35:02;1.50;99.90
39899;DHT22;25571;47.876;10.642;2024-01-30T06:37:28;1.60;99.90
39899;DHT22;25571;47.876;10.642;2024-01-30T06:39:53;1.60;99.90
39899;DHT22;25571;47.876;10.642;2024-01-30T06:42:19;1.60;99.90
39899;DHT22;25571;47.876;10.642;2024-01-30T06:44:45;1.70;99.90
39899;DHT22;25571;47.876;10.642;2024-01-30T06:47:11;2.90;99.90
39899;DHT22;25571;47.876;10.642;2024-01-30T06:49:36;1.60;99.90
39899;DHT22;25571;47.876;10.642;2024-01-30T06:52:07;1.70;99.90
39899;DHT22;25571;47.876;10.642;2024-01-30T06:54:33;1.70;99.90
39899;DHT22;25571;47.876;10.642;2024-01-30T06:56:59;1.70;99.90
39899;DHT22;25571;47.876;10.642;2024-01-30T06:59:25;1.70;99.90
39899;DHT22;25571;47.876;10.642;2024-01-30T07:01:50;1.70;99.90
39899;DHT22;25571;47.876;10.642;2024-01-30T07:04:16;1.80;99.90
39899;DHT22;25571;47.876;10.642;2024-01-30T07:06:42;1.90;99.90
39899;DHT22;25571;47.876;10.642;2024-01-30T07:09:07;1.80;99.90
39899;DHT22;25571;47.876;10.642;2024-01-30T07:11:33;1.90;99.90
39899;DHT22;25571;47.876;10.642;2024-01-30T07:13:59;1.90;99.90
39899;DHT22;25571;47.876;10.642;2024-01-30T07:16:25;1.90;99.90
39899;DHT22;25571;47.876;10.642;2024-01-30T07:18:51;2.00;99.90
39899;DHT22;25571;47.876;10.642;2024-01-30T07:21:16;2.10;99.90
39899;DHT22;25571;47.876;10.642;2024-01-30T07:23:43;2.10;99.90
39899;DHT22;25571;47.876;10.642;2024-01-30T07:26:08;2.10;99.90
39899;DHT22;25571;47.876;10.642;2024-01-30T07:28:35;2.20;99.90
39899;DHT22;25571;47.876;10.642;2024-01-30T07:31:01;2.10;99.90
39899;DHT22;25571;47.876;10.642;2024-01-30T07:33:27;2.20;99.90
39899;DHT22;25571;47.876;10.642;2024-01-30T07:35:53;2.30;99.90
39899;DHT22;25571;47.876;10.642;2024-01-30T07:38:19;2.30;99.90
39899;DHT22;25571;47.876;10.642;2024-01-30T07:40:45;2.40;99.90
39899;DHT22;25571;47.876;10.642;2024-01-30T07:43:11;2.40;99.90
39899;DHT22;25571;47.876;10.642;2024-01-30T07:45:36;2.50;99.90
39899;DHT22;25571;47.876;10.642;2024-01-30T07:48:05;2.60;99.90
39899;DHT22;25571;47.876;10.642;2024-01-30T07:50:31;2.70;99.90
39899;DHT22;25571;47.876;10.642;2024-01-30T07:52:57;2.90;99.90
39899;DHT22;25571;47.876;10.642;2024-01-30T07:55:23;3.30;99.90
39899;DHT22;25571;47.876;10.642;2024-01-30T07:57:51;5.80;99.90
39899;DHT22;25571;47.876;10.642;2024-01-30T08:00:18;8.30;99.50
39899;DHT22;25571;47.876;10.642;2024-01-30T08:02:45;10.40;94.50
39899;DHT22;25571;47.876;10.642;2024-01-30T08:05:10;12.10;90.00
39899;DHT22;25571;47.876;10.642;2024-01-30T08:07:37;13.50;82.70
39899;DHT22;25571;47.876;10.642;2024-01-30T08:10:02;14.80;76.50
39899;DHT22;25571;47.876;10.642;2024-01-30T08:12:29;15.90;70.80
39899;DHT22;25571;47.876;10.642;2024-01-30T08:14:54;17.70;66.10
39899;DHT22;25571;47.876;10.642;2024-01-30T08:17:20;17.90;62.60
39899;DHT22;25571;47.876;10.642;2024-01-30T08:19:45;19.00;70.50
39899;DHT22;25571;47.876;10.642;2024-01-30T08:22:12;18.40;56.20
39899;DHT22;25571;47.876;10.642;2024-01-30T08:27:06;20.90;81.20
39899;DHT22;25571;47.876;10.642;2024-01-30T08:29:32;21.10;63.40
39899;DHT22;25571;47.876;10.642;2024-01-30T08:31:57;22.00;53.00
39899;DHT22;25571;47.876;10.642;2024-01-30T08:34:24;22.50;59.80
39899;DHT22;25571;47.876;10.642;2024-01-30T08:44:07;24.60;50.60
39899;DHT22;25571;47.876;10.642;2024-01-30T08:46:33;24.70;45.50
39899;DHT22;25571;47.876;10.642;2024-01-30T08:48:59;25.20;44.70
39899;DHT22;25571;47.876;10.642;2024-01-30T08:51:24;26.10;55.50
39899;DHT22;25571;47.876;10.642;2024-01-30T08:53:50;26.00;43.70
39899;DHT22;25571;47.876;10.642;2024-01-30T08:56:18;26.40;43.00
39899;DHT22;25571;47.876;10.642;2024-01-30T08:58:43;26.90;42.80
39899;DHT22;25571;47.876;10.642;2024-01-30T09:01:09;27.30;42.50
39899;DHT22;25571;47.876;10.642;2024-01-30T09:03:34;27.80;41.40
39899;DHT22;25571;47.876;10.642;2024-01-30T09:06:01;28.20;40.40
39899;DHT22;25571;47.876;10.642;2024-01-30T09:08:27;28.40;40.10
39899;DHT22;25571;47.876;10.642;2024-01-30T09:10:53;29.10;39.40
39899;DHT22;25571;47.876;10.642;2024-01-30T09:13:19;29.40;39.00
39899;DHT22;25571;47.876;10.642;2024-01-30T09:15:44;29.70;38.20
39899;DHT22;25571;47.876;10.642;2024-01-30T09:18:10;29.80;37.30
39899;DHT22;25571;47.876;10.642;2024-01-30T09:20:35;28.90;37.50
39899;DHT22;25571;47.876;10.642;2024-01-30T09:23:01;27.90;38.70
39899;DHT22;25571;47.876;10.642;2024-01-30T09:25:27;26.80;40.40
39899;DHT22;25571;47.876;10.642;2024-01-30T09:27:52;26.10;40.00
39899;DHT22;25571;47.876;10.642;2024-01-30T09:30:18;25.70;40.80
39899;DHT22;25571;47.876;10.642;2024-01-30T09:32:43;25.50;42.40
39899;DHT22;25571;47.876;10.642;2024-01-30T09:35:09;25.10;42.90
39899;DHT22;25571;47.876;10.642;2024-01-30T09:37:35;24.60;44.20
39899;DHT22;25571;47.876;10.642;2024-01-30T09:40:00;22.90;44.80
39899;DHT22;25571;47.876;10.642;2024-01-30T09:42:35;20.20;48.10
39899;DHT22;25571;47.876;10.642;2024-01-30T09:45:05;19.40;51.10
39899;DHT22;25571;47.876;10.642;2024-01-30T09:47:44;18.70;51.20
39899;DHT22;25571;47.876;10.642;2024-01-30T09:50:12;17.90;53.00
39899;DHT22;25571;47.876;10.642;2024-01-30T09:52:38;17.40;54.60
39899;DHT22;25571;47.876;10.642;2024-01-30T09:55:06;17.00;55.60
39899;DHT22;25571;47.876;10.642;2024-01-30T09:57:32;16.50;56.00
39899;DHT22;25571;47.876;10.642;2024-01-30T09:59:57;16.30;56.40
39899;DHT22;25571;47.876;10.642;2024-01-30T10:02:23;16.10;56.20
39899;DHT22;25571;47.876;10.642;2024-01-30T10:04:50;16.00;58.00
39899;DHT22;25571;47.876;10.642;2024-01-30T10:07:17;15.50;58.50
39899;DHT22;25571;47.876;10.642;2024-01-30T10:09:43;15.30;59.20
39899;DHT22;25571;47.876;10.642;2024-01-30T10:12:09;15.00;60.20
39899;DHT22;25571;47.876;10.642;2024-01-30T10:14:39;15.00;59.40
39899;DHT22;25571;47.876;10.642;2024-01-30T10:17:05;14.90;59.80
39899;DHT22;25571;47.876;10.642;2024-01-30T10:19:31;14.80;60.70
39899;DHT22;25571;47.876;10.642;2024-01-30T10:21:56;14.70;62.00
39899;DHT22;25571;47.876;10.642;2024-01-30T10:24:28;14.30;61.90
39899;DHT22;25571;47.876;10.642;2024-01-30T10:26:55;14.30;62.80
39899;DHT22;25571;47.876;10.642;2024-01-30T10:29:21;13.80;64.00
39899;DHT22;25571;47.876;10.642;2024-01-30T10:32:03;13.60;65.80
39899;DHT22;25571;47.876;10.642;2024-01-30T10:34:29;13.20;66.40
39899;DHT22;25571;47.876;10.642;2024-01-30T10:37:09;12.90;67.90
39899;DHT22;25571;47.876;10.642;2024-01-30T10:39:42;13.10;66.90
39899;DHT22;25571;47.876;10.642;2024-01-30T10:42:15;13.20;67.30
39899;DHT22;25571;47.876;10.642;2024-01-30T10:45:05;13.10;67.50
39899;DHT22;25571;47.876;10.642;2024-01-30T10:47:34;13.20;68.70
39899;DHT22;25571;47.876;10.642;2024-01-30T10:50:02;13.20;68.40
39899;DHT22;25571;47.876;10.642;2024-01-30T10:52:29;13.10;69.70
39899;DHT22;25571;47.876;10.642;2024-01-30T10:54:55;13.00;70.90
39899;DHT22;25571;47.876;10.642;2024-01-30T10:57:25;13.00;70.80
39899;DHT22;25571;47.876;10.642;2024-01-30T10:59:56;12.90;71.20
39899;DHT22;25571;47.876;10.642;2024-01-30T11:02:22;12.90;69.00
39899;DHT22;25571;47.876;10.642;2024-01-30T11:04:49;12.80;71.60
39899;DHT22;25571;47.876;10.642;2024-01-30T11:07:23;12.60;73.20
39899;DHT22;25571;47.876;10.642;2024-01-30T11:10:13;12.60;74.60
39899;DHT22;25571;47.876;10.642;2024-01-30T11:12:40;12.50;75.10
39899;DHT22;25571;47.876;10.642;2024-01-30T11:15:08;12.70;76.10
39899;DHT22;25571;47.876;10.642;2024-01-30T11:20:26;12.60;75.00
39899;DHT22;25571;47.876;10.642;2024-01-30T11:22:53;12.60;72.60
39899;DHT22;25571;47.876;10.642;2024-01-30T11:25:23;12.50;73.70
39899;DHT22;25571;47.876;10.642;2024-01-30T11:27:55;12.40;74.00
39899;DHT22;25571;47.876;10.642;2024-01-30T11:30:25;12.40;75.10
39899;DHT22;25571;47.876;10.642;2024-01-30T11:33:11;12.30;75.10
39899;DHT22;25571;47.876;10.642;2024-01-30T11:35:44;12.20;76.60
39899;DHT22;25571;47.876;10.642;2024-01-30T11:38:11;12.40;76.90
39899;DHT22;25571;47.876;10.642;2024-01-30T11:40:38;12.50;77.50
39899;DHT22;25571;47.876;10.642;2024-01-30T11:43:05;12.50;77.70
39899;DHT22;25571;47.876;10.642;2024-01-30T11:45:32;12.60;78.00
39899;DHT22;25571;47.876;10.642;2024-01-30T11:47:58;12.60;78.40
39899;DHT22;25571;47.876;10.642;2024-01-30T11:50:32;12.40;74.80
39899;DHT22;25571;47.876;10.642;2024-01-30T11:52:59;12.50;74.40
39899;DHT22;25571;47.876;10.642;2024-01-30T11:55:25;12.50;74.10
39899;DHT22;25571;47.876;10.642;2024-01-30T11:57:55;12.70;74.30
39899;DHT22;25571;47.876;10.642;2024-01-30T12:00:20;12.50;73.20
39899;DHT22;25571;47.876;10.642;2024-01-30T12:02:50;12.50;75.20
39899;DHT22;25571;47.876;10.642;2024-01-30T12:05:16;12.60;74.90
39899;DHT22;25571;47.876;10.642;2024-01-30T12:07:44;12.60;75.20
39899;DHT22;25571;47.876;10.642;2024-01-30T12:10:12;12.60;75.50
39899;DHT22;25571;47.876;10.642;2024-01-30T12:12:40;12.60;75.90
39899;DHT22;25571;47.876;10.642;2024-01-30T12:15:07;12.60;75.80
39899;DHT22;25571;47.876;10.642;2024-01-30T12:17:34;12.70;77.10
39899;DHT22;25571;47.876;10.642;2024-01-30T12:22:43;12.70;75.80
39899;DHT22;25571;47.876;10.642;2024-01-30T12:25:13;12.80;77.50
39899;DHT22;25571;47.876;10.642;2024-01-30T12:27:41;12.80;75.60
39899;DHT22;25571;47.876;10.642;2024-01-30T12:30:09;12.80;75.60
39899;DHT22;25571;47.876;10.642;2024-01-30T12:32:45;12.70;76.20
39899;DHT22;25571;47.876;10.642;2024-01-30T12:35:13;12.80;75.90
39899;DHT22;25571;47.876;10.642;2024-01-30T12:37:39;12.80;77.50
39899;DHT22;25571;47.876;10.642;2024-01-30T12:40:05;12.80;76.70
39899;DHT22;25571;47.876;10.642;2024-01-30T12:42:35;12.90;76.90
39899;DHT22;25571;47.876;10.642;2024-01-30T12:45:05;13.00;76.20
39899;DHT22;25571;47.876;10.642;2024-01-30T12:47:31;12.90;76.80
39899;DHT22;25571;47.876;10.642;2024-01-30T12:49:57;13.00;75.90
39899;DHT22;25571;47.876;10.642;2024-01-30T12:52:23;13.00;76.40
39899;DHT22;25571;47.876;10.642;2024-01-30T12:54:49;13.00;75.90
39899;DHT22;25571;47.876;10.642;2024-01-30T12:57:15;13.00;76.00
39899;DHT22;25571;47.876;10.642;2024-01-30T12:59:41;13.10;76.00
39899;DHT22;25571;47.876;10.642;2024-01-30T13:02:07;13.10;74.10
39899;DHT22;25571;47.876;10.642;2024-01-30T13:04:33;13.10;74.10
39899;DHT22;25571;47.876;10.642;2024-01-30T13:06:59;13.10;73.10
39899;DHT22;25571;47.876;10.642;2024-01-30T13:09:26;13.20;74.90
39899;DHT22;25571;47.876;10.642;2024-01-30T13:11:52;13.30;75.60
39899;DHT22;25571;47.876;10.642;2024-01-30T13:14:18;13.20;73.50
39899;DHT22;25571;47.876;10.642;2024-01-30T13:16:44;13.20;73.90
39899;DHT22;25571;47.876;10.642;2024-01-30T13:19:10;13.10;74.70
39899;DHT22;25571;47.876;10.642;2024-01-30T13:21:35;13.20;75.80
39899;DHT22;25571;47.876;10.642;2024-01-30T13:24:01;13.20;74.20
39899;DHT22;25571;47.876;10.642;2024-01-30T13:26:27;13.20;74.10
39899;DHT22;25571;47.876;10.642;2024-01-30T13:28:52;13.20;73.50
39899;DHT22;25571;47.876;10.642;2024-01-30T13:31:18;13.10;72.70
39899;DHT22;25571;47.876;10.642;2024-01-30T13:33:44;13.00;72.40
39899;DHT22;25571;47.876;10.642;2024-01-30T13:36:11;13.00;72.00
39899;DHT22;25571;47.876;10.642;2024-01-30T13:38:37;13.10;71.40
39899;DHT22;25571;47.876;10.642;2024-01-30T13:41:03;13.00;71.60
39899;DHT22;25571;47.876;10.642;2024-01-30T13:43:29;13.00;71.20
39899;DHT22;25571;47.876;10.642;2024-01-30T13:45:54;13.10;72.50
39899;DHT22;25571;47.876;10.642;2024-01-30T13:48:20;12.90;71.00
39899;DHT22;25571;47.876;10.642;2024-01-30T13:50:46;12.90;71.80
39899;DHT22;25571;47.876;10.642;2024-01-30T13:53:12;12.90;71.60
39899;DHT22;25571;47.876;10.642;2024-01-30T13:55:37;12.90;72.70
39899;DHT22;25571;47.876;10.642;2024-01-30T13:58:05;13.00;73.80
39899;DHT22;25571;47.876;10.642;2024-01-30T14:00:30;12.90;70.50
39899;DHT22;25571;47.876;10.642;2024-01-30T14:02:56;12.90;69.70
39899;DHT22;25571;47.876;10.642;2024-01-30T14:05:23;12.90;68.80
39899;DHT22;25571;47.876;10.642;2024-01-30T14:07:49;12.90;70.00
39899;DHT22;25571;47.876;10.642;2024-01-30T14:10:15;12.90;70.20
39899;DHT22;25571;47.876;10.642;2024-01-30T14:12:42;12.90;70.00
39899;DHT22;25571;47.876;10.642;2024-01-30T14:15:08;13.00;70.80
39899;DHT22;25571;47.876;10.642;2024-01-30T14:17:35;13.00;69.70
39899;DHT22;25571;47.876;10.642;2024-01-30T14:20:02;13.00;69.50
39899;DHT22;25571;47.876;10.642;2024-01-30T14:22:28;12.90;69.40
39899;DHT22;25571;47.876;10.642;2024-01-30T14:24:54;12.90;70.00
39899;DHT22;25571;47.876;10.642;2024-01-30T14:27:19;12.90;70.70
39899;DHT22;25571;47.876;10.642;2024-01-30T14:29:45;12.80;69.10
39899;DHT22;25571;47.876;10.642;2024-01-30T14:32:11;12.90;70.80
39899;DHT22;25571;47.876;10.642;2024-01-30T14:34:36;12.90;71.90
39899;DHT22;25571;47.876;10.642;2024-01-30T14:37:02;12.90;71.10
39899;DHT22;25571;47.876;10.642;2024-01-30T14:39:28;12.80;71.90
39899;DHT22;25571;47.876;10.642;2024-01-30T14:41:53;12.80;71.90
39899;DHT22;25571;47.876;10.642;2024-01-30T14:44:19;12.70;72.10
39899;DHT22;25571;47.876;10.642;2024-01-30T14:46:44;12.60;72.20
39899;DHT22;25571;47.876;10.642;2024-01-30T14:49:10;12.50;71.90
39899;DHT22;25571;47.876;10.642;2024-01-30T14:51:35;12.40;72.00
39899;DHT22;25571;47.876;10.642;2024-01-30T14:54:01;12.40;72.60
39899;DHT22;25571;47.876;10.642;2024-01-30T14:56:27;12.30;72.20
39899;DHT22;25571;47.876;10.642;2024-01-30T14:58:53;12.40;71.90
39899;DHT22;25571;47.876;10.642;2024-01-30T15:01:18;12.30;71.10
39899;DHT22;25571;47.876;10.642;2024-01-30T15:03:44;12.30;71.80
39899;DHT22;25571;47.876;10.642;2024-01-30T15:06:12;12.20;73.20
39899;DHT22;25571;47.876;10.642;2024-01-30T15:08:38;12.20;72.00
39899;DHT22;25571;47.876;10.642;2024-01-30T15:11:04;12.10;73.50
39899;DHT22;25571;47.876;10.642;2024-01-30T15:13:31;12.00;72.50
39899;DHT22;25571;47.876;10.642;2024-01-30T15:15:57;12.10;72.80
39899;DHT22;25571;47.876;10.642;2024-01-30T15:18:23;12.10;73.20
39899;DHT22;25571;47.876;10.642;2024-01-30T15:20:49;12.00;74.10
39899;DHT22;25571;47.876;10.642;2024-01-30T15:23:15;12.00;74.50
39899;DHT22;25571;47.876;10.642;2024-01-30T15:25:42;11.90;75.20
39899;DHT22;25571;47.876;10.642;2024-01-30T15:28:07;12.00;75.30
39899;DHT22;25571;47.876;10.642;2024-01-30T15:30:35;12.00;75.70
39899;DHT22;25571;47.876;10.642;2024-01-30T15:33:00;12.00;75.80
39899;DHT22;25571;47.876;10.642;2024-01-30T15:35:27;11.90;76.20